Time;durP1;ratioP1;P1;durP2;ratioP2;P2;SDS_P1;SDS_P2;PMS_P1;PMS_P2;Temp;Humidity;BMP_temperature;BMP_pressure;BME280_temperature;BME280_humidity;BME280_pressure;Samples;Min_cycle;Max_cycle;Signal;HPM_P1;HPM_P2
2023/08/22 00:01:00;;;;;;;8.35;6.53;;;16.60;99.90;;;;;;5032532;28;20913;-92
2023/08/22 00:03:25;;;;;;;7.75;6.05;;;16.50;99.90;;;;;;5050380;28;20494;-91
2023/08/22 00:05:51;;;;;;;11.97;9.20;;;16.50;99.90;;;;;;5049658;28;20410;-92
2023/08/22 00:08:17;;;;;;;13.13;11.07;;;16.50;99.90;;;;;;5049584;28;20460;-92
2023/08/22 00:10:42;;;;;;;10.63;8.10;;;16.60;99.90;;;;;;5050360;28;20408;-93
2023/08/22 00:13:08;;;;;;;11.32;9.10;;;16.90;99.90;;;;;;5049150;28;20403;-92
2023/08/22 00:15:34;;;;;;;10.70;9.57;;;16.50;99.90;;;;;;5050195;28;20794;-92
2023/08/22 00:17:59;;;;;;;12.15;10.73;;;16.80;99.90;;;;;;5032617;28;20490;-92
2023/08/22 00:20:25;;;;;;;16.83;12.00;;;16.70;99.90;;;;;;5033872;28;21069;-93
2023/08/22 00:22:51;;;;;;;10.88;9.00;;;16.70;99.90;;;;;;5032182;28;20891;-93
2023/08/22 00:25:16;;;;;;;14.95;11.88;;;16.70;99.90;;;;;;5033541;28;20411;-92
2023/08/22 00:27:42;;;;;;;16.10;11.83;;;16.90;99.90;;;;;;5032742;28;20408;-93
2023/08/22 00:30:08;;;;;;;15.23;10.85;;;16.90;99.90;;;;;;5032425;28;20410;-92
2023/08/22 00:32:34;;;;;;;13.57;11.70;;;16.70;99.90;;;;;;5032810;28;20891;-92
2023/08/22 00:35:00;;;;;;;12.37;9.63;;;16.70;99.90;;;;;;5048985;28;20395;-92
2023/08/22 00:37:26;;;;;;;14.65;10.43;;;16.60;99.90;;;;;;5050062;28;20423;-92
2023/08/22 00:39:53;;;;;;;12.20;9.27;;;16.70;99.90;;;;;;5048579;28;20814;-92
2023/08/22 00:42:18;;;;;;;13.75;9.30;;;16.70;99.90;;;;;;5033114;28;20528;-92
2023/08/22 00:44:44;;;;;;;18.90;15.50;;;16.60;99.90;;;;;;5032654;28;20982;-92
2023/08/22 00:47:10;;;;;;;17.55;14.27;;;16.80;99.90;;;;;;5032644;28;20423;-93
2023/08/22 00:49:36;;;;;;;13.65;10.43;;;16.60;99.90;;;;;;5049576;28;20418;-93
2023/08/22 00:52:03;;;;;;;23.55;15.70;;;16.20;99.90;;;;;;5032182;28;20416;-94
2023/08/22 00:54:30;;;;;;;14.25;10.60;;;16.50;99.90;;;;;;5033122;28;20400;-93
2023/08/22 00:56:56;;;;;;;13.30;10.43;;;16.90;99.90;;;;;;5032522;28;20408;-94
2023/08/22 00:59:24;;;;;;;12.83;11.03;;;16.50;99.90;;;;;;5034374;28;20494;-92
2023/08/22 01:01:49;;;;;;;12.73;10.27;;;16.50;99.90;;;;;;5035633;28;20428;-93
2023/08/22 01:04:15;;;;;;;16.80;11.93;;;16.90;99.90;;;;;;5053088;28;20948;-93
2023/08/22 01:07:00;;;;;;;11.73;10.10;;;16.60;99.90;;;;;;5053488;28;20751;-92
2023/08/22 01:09:32;;;;;;;13.63;10.85;;;17.00;99.90;;;;;;5035880;28;20412;-92
2023/08/22 01:12:27;;;;;;;12.52;10.50;;;16.60;99.90;;;;;;5054196;28;20411;-92
2023/08/22 01:15:01;;;;;;;11.90;10.02;;;16.60;99.90;;;;;;5052502;28;20414;-92
2023/08/22 01:17:27;;;;;;;13.83;11.67;;;16.60;99.90;;;;;;5052681;28;20426;-92
2023/08/22 01:19:53;;;;;;;17.02;14.18;;;16.90;99.90;;;;;;5036542;28;20407;-94
2023/08/22 01:22:24;;;;;;;18.57;15.33;;;17.00;99.90;;;;;;5052224;28;20449;-92
2023/08/22 01:24:49;;;;;;;15.98;13.13;;;16.90;99.90;;;;;;5053134;28;20430;-92
2023/08/22 01:27:17;;;;;;;14.27;12.35;;;16.70;99.90;;;;;;5035049;28;20427;-94
2023/08/22 01:29:50;;;;;;;13.95;11.70;;;16.70;99.90;;;;;;5036566;28;20408;-92
2023/08/22 01:32:26;;;;;;;15.23;11.90;;;16.80;99.90;;;;;;5036027;28;20416;-91
2023/08/22 01:34:56;;;;;;;17.27;14.13;;;16.90;99.90;;;;;;5035995;28;20486;-92
2023/08/22 01:37:23;;;;;;;16.13;13.55;;;16.90;99.90;;;;;;5052880;28;20412;-92
2023/08/22 01:39:55;;;;;;;14.50;11.52;;;16.80;99.90;;;;;;5035156;28;20411;-93
2023/08/22 01:42:22;;;;;;;14.30;12.47;;;16.60;99.90;;;;;;5036413;28;20443;-93
2023/08/22 01:44:48;;;;;;;13.98;11.73;;;16.50;99.90;;;;;;5051632;28;20847;-92
2023/08/22 01:47:14;;;;;;;13.37;11.37;;;16.70;99.90;;;;;;5036129;28;20507;-93
2023/08/22 01:49:39;;;;;;;13.05;10.80;;;16.80;99.90;;;;;;5052528;28;20411;-93
2023/08/22 01:52:05;;;;;;;11.23;10.13;;;16.70;99.90;;;;;;5052088;28;20408;-92
2023/08/22 01:54:31;;;;;;;15.15;12.48;;;16.50;99.90;;;;;;5035680;28;20415;-94
2023/08/22 01:56:57;;;;;;;18.15;15.23;;;16.40;99.90;;;;;;5034875;28;20442;-92
2023/08/22 01:59:22;;;;;;;15.53;12.50;;;16.40;99.90;;;;;;5036270;28;20490;-93
2023/08/22 02:01:48;;;;;;;16.85;15.00;;;16.50;99.90;;;;;;5033832;28;20801;-93
2023/08/22 02:04:13;;;;;;;17.77;13.63;;;16.60;99.90;;;;;;5035837;28;20990;-92
2023/08/22 02:06:39;;;;;;;15.35;13.32;;;16.60;99.90;;;;;;5035076;28;20422;-92
2023/08/22 02:09:05;;;;;;;14.53;11.67;;;16.30;99.90;;;;;;5035425;28;20412;-93
2023/08/22 02:11:31;;;;;;;10.05;9.07;;;16.20;99.90;;;;;;5034721;28;20422;-92
2023/08/22 02:13:57;;;;;;;10.43;9.27;;;16.40;99.90;;;;;;5034841;28;20499;-93
2023/08/22 02:16:23;;;;;;;9.37;8.43;;;16.20;99.90;;;;;;5035743;28;21099;-93
2023/08/22 02:18:48;;;;;;;11.87;10.67;;;16.50;99.90;;;;;;5033884;28;20899;-94
2023/08/22 02:21:16;;;;;;;13.65;11.40;;;16.20;99.90;;;;;;5035682;28;20488;-93
2023/08/22 02:23:42;;;;;;;13.75;12.25;;;16.30;99.90;;;;;;5034072;28;20412;-92
2023/08/22 02:26:08;;;;;;;17.63;14.10;;;16.00;99.90;;;;;;5051702;28;20507;-93
2023/08/22 02:28:33;;;;;;;20.75;12.60;;;16.00;99.90;;;;;;5034618;28;20415;-93
2023/08/22 02:30:59;;;;;;;13.87;12.40;;;15.90;99.90;;;;;;5034691;28;20505;-93
2023/08/22 02:33:25;;;;;;;13.77;12.35;;;16.00;99.90;;;;;;5051778;28;20493;-92
2023/08/22 02:35:51;;;;;;;11.40;10.05;;;15.80;99.90;;;;;;5033861;28;20406;-93
2023/08/22 02:38:16;;;;;;;12.20;10.73;;;15.60;99.90;;;;;;5052332;28;20464;-91
2023/08/22 02:40:42;;;;;;;13.82;11.73;;;15.80;99.90;;;;;;5050238;28;20941;-92
2023/08/22 02:43:08;;;;;;;12.30;10.93;;;15.80;99.90;;;;;;5035276;28;20445;-91
2023/08/22 02:45:34;;;;;;;10.33;9.30;;;15.80;99.90;;;;;;5050836;28;20407;-93
2023/08/22 02:48:00;;;;;;;11.03;10.00;;;15.60;99.90;;;;;;5034653;28;20502;-94
2023/08/22 02:50:26;;;;;;;11.43;10.23;;;15.70;99.90;;;;;;5034627;28;20474;-92
2023/08/22 02:52:51;;;;;;;12.00;10.80;;;15.70;99.90;;;;;;5033922;28;20400;-92
2023/08/22 02:55:17;;;;;;;10.40;9.40;;;16.00;99.90;;;;;;5035162;28;20395;-92
2023/08/22 02:57:43;;;;;;;11.95;10.73;;;15.60;99.90;;;;;;5033402;28;20469;-93
2023/08/22 03:00:11;;;;;;;9.20;8.30;;;15.60;99.90;;;;;;5051684;28;20404;-93
2023/08/22 03:02:37;;;;;;;7.23;6.53;;;15.90;99.90;;;;;;5049857;28;20466;-94
2023/08/22 03:05:07;;;;;;;9.33;8.07;;;15.70;99.90;;;;;;5034401;28;20420;-93
2023/08/22 03:07:33;;;;;;;11.10;9.18;;;15.60;99.90;;;;;;5034610;28;20407;-91
2023/08/22 03:09:58;;;;;;;7.15;6.40;;;15.70;99.90;;;;;;5050399;28;20418;-94
2023/08/22 03:12:24;;;;;;;6.57;5.97;;;15.60;99.90;;;;;;5034687;28;20396;-92
2023/08/22 03:14:50;;;;;;;10.75;9.65;;;15.50;99.90;;;;;;5049792;28;20450;-93
2023/08/22 03:17:15;;;;;;;8.10;7.15;;;15.50;99.90;;;;;;5034820;28;20423;-92
2023/08/22 03:19:41;;;;;;;8.70;7.90;;;15.50;99.90;;;;;;5033329;28;20774;-93
2023/08/22 03:22:06;;;;;;;6.20;5.60;;;15.70;99.90;;;;;;5033512;28;20435;-94
2023/08/22 03:24:32;;;;;;;7.80;6.53;;;15.50;99.90;;;;;;5050347;28;20975;-92
2023/08/22 03:26:58;;;;;;;13.23;11.48;;;15.40;99.90;;;;;;5033243;28;20412;-92
2023/08/22 03:29:24;;;;;;;11.60;10.20;;;15.40;99.90;;;;;;5051048;28;20438;-92
2023/08/22 03:31:49;;;;;;;9.43;7.47;;;15.40;99.90;;;;;;5033538;28;20556;-93
2023/08/22 03:34:15;;;;;;;11.48;9.00;;;15.30;99.90;;;;;;5051045;28;20423;-92
2023/08/22 03:36:41;;;;;;;8.25;7.05;;;15.50;99.90;;;;;;5032797;28;20512;-92
2023/08/22 03:39:07;;;;;;;7.87;7.07;;;15.50;99.90;;;;;;5034277;28;20443;-92
2023/08/22 03:41:32;;;;;;;7.55;6.85;;;15.50;99.90;;;;;;5032750;28;20798;-93
2023/08/22 03:43:58;;;;;;;8.30;7.50;;;15.40;99.90;;;;;;5033938;28;20408;-93
2023/08/22 03:46:24;;;;;;;8.30;7.45;;;15.20;99.90;;;;;;5049936;28;20439;-91
2023/08/22 03:48:49;;;;;;;10.73;9.63;;;15.30;99.90;;;;;;5049965;28;20890;-93
2023/08/22 03:51:15;;;;;;;9.88;8.88;;;15.40;99.90;;;;;;5033950;28;20433;-93
2023/08/22 03:53:40;;;;;;;16.07;14.03;;;15.10;99.90;;;;;;5032299;28;20454;-93
2023/08/22 03:56:06;;;;;;;10.52;9.43;;;15.20;99.90;;;;;;5033922;28;20899;-94
2023/08/22 03:58:32;;;;;;;9.27;8.37;;;15.00;99.90;;;;;;5032954;28;20408;-94
2023/08/22 04:01:03;;;;;;;8.43;7.43;;;15.20;99.90;;;;;;5033473;28;20466;-94
2023/08/22 04:03:30;;;;;;;8.30;7.43;;;15.20;99.90;;;;;;5049967;28;20917;-92
2023/08/22 04:05:58;;;;;;;7.57;6.78;;;15.00;99.90;;;;;;5033449;28;20466;-93
2023/08/22 04:08:24;;;;;;;7.83;7.03;;;14.80;99.90;;;;;;5050619;28;20453;-93
2023/08/22 04:10:50;;;;;;;7.20;6.50;;;14.70;99.90;;;;;;5049301;28;20400;-92
2023/08/22 04:13:16;;;;;;;8.10;7.28;;;15.10;99.90;;;;;;5034288;28;20415;-92
2023/08/22 04:15:41;;;;;;;7.27;6.57;;;15.10;99.90;;;;;;5049176;28;20909;-93
2023/08/22 04:18:07;;;;;;;14.85;6.68;;;14.70;99.90;;;;;;5049891;28;20494;-93
2023/08/22 04:20:33;;;;;;;5.43;4.27;;;14.60;99.90;;;;;;5032718;28;20831;-93
2023/08/22 04:22:58;;;;;;;9.77;8.70;;;14.90;99.90;;;;;;5049738;28;20948;-91
2023/08/22 04:25:24;;;;;;;9.27;8.30;;;14.40;99.90;;;;;;5049508;28;20803;-92
2023/08/22 04:27:49;;;;;;;8.43;7.45;;;14.70;99.90;;;;;;5032340;28;20479;-91
2023/08/22 04:30:15;;;;;;;8.93;7.80;;;14.60;99.90;;;;;;5033611;28;20427;-92
2023/08/22 04:32:41;;;;;;;8.25;7.20;;;14.40;99.90;;;;;;5048996;28;20443;-93
2023/08/22 04:35:07;;;;;;;12.75;11.45;;;14.30;99.90;;;;;;5037320;28;20457;-91
2023/08/22 04:37:32;;;;;;;12.13;10.53;;;14.30;99.90;;;;;;5036390;28;20407;-92
2023/08/22 04:39:58;;;;;;;9.70;8.80;;;14.70;99.90;;;;;;5037225;28;20418;-91
2023/08/22 04:42:24;;;;;;;8.25;7.45;;;14.20;99.90;;;;;;5053257;28;20515;-91
2023/08/22 04:44:49;;;;;;;13.87;11.03;;;14.60;99.90;;;;;;5053568;28;20836;-92
2023/08/22 04:47:15;;;;;;;13.07;11.43;;;14.20;99.90;;;;;;5037395;28;21097;-92
2023/08/22 04:49:41;;;;;;;9.33;7.70;;;14.20;99.90;;;;;;5033719;28;20492;-93
2023/08/22 04:52:07;;;;;;;8.77;7.68;;;14.20;99.90;;;;;;5054218;28;20400;-93
2023/08/22 04:54:33;;;;;;;7.18;6.47;;;14.20;99.90;;;;;;5035929;28;20824;-93
2023/08/22 04:56:59;;;;;;;8.55;6.72;;;14.60;99.90;;;;;;5052713;28;20537;-92
2023/08/22 04:59:26;;;;;;;8.90;8.10;;;14.60;99.90;;;;;;5041276;28;20413;-92
2023/08/22 05:01:51;;;;;;;7.97;7.28;;;14.30;99.90;;;;;;5033588;28;20474;-92
2023/08/22 05:04:17;;;;;;;12.52;10.77;;;14.70;99.90;;;;;;5036839;28;20408;-91
2023/08/22 05:06:43;;;;;;;8.90;7.75;;;14.50;99.90;;;;;;5035960;28;20408;-91
2023/08/22 05:09:11;;;;;;;8.50;7.10;;;14.50;99.90;;;;;;5037154;28;20553;-92
2023/08/22 05:11:37;;;;;;;8.38;7.57;;;14.60;99.90;;;;;;5035681;28;20404;-91
2023/08/22 05:14:03;;;;;;;10.18;9.20;;;14.70;99.90;;;;;;5053534;28;20457;-92
2023/08/22 05:16:29;;;;;;;9.33;8.43;;;14.80;99.90;;;;;;5035705;28;20821;-92
2023/08/22 05:18:55;;;;;;;10.02;8.98;;;14.90;99.90;;;;;;5036518;28;20442;-92
2023/08/22 05:21:21;;;;;;;17.93;14.20;;;15.00;99.90;;;;;;5036252;28;20419;-91
2023/08/22 05:23:47;;;;;;;11.63;10.43;;;15.10;99.90;;;;;;5036100;28;20473;-92
2023/08/22 05:26:13;;;;;;;16.55;13.75;;;15.30;99.90;;;;;;5053113;28;20740;-92
2023/08/22 05:28:39;;;;;;;13.88;11.93;;;15.40;99.90;;;;;;5052037;28;20408;-92
2023/08/22 05:31:04;;;;;;;25.40;21.13;;;15.20;99.90;;;;;;5036670;28;20415;-92
2023/08/22 05:33:30;;;;;;;16.75;14.95;;;16.00;99.90;;;;;;5035206;28;20419;-92
2023/08/22 05:35:55;;;;;;;15.83;14.20;;;16.20;99.90;;;;;;5036271;28;20400;-93
2023/08/22 05:38:21;;;;;;;20.65;17.15;;;16.00;99.90;;;;;;5052039;28;21013;-90
2023/08/22 05:40:47;;;;;;;16.10;14.50;;;16.20;99.90;;;;;;5035394;28;20464;-93
2023/08/22 05:43:12;;;;;;;19.02;16.08;;;16.40;99.90;;;;;;5036179;28;20426;-92
2023/08/22 05:45:38;;;;;;;17.33;15.50;;;16.30;99.90;;;;;;5050834;28;20415;-92
2023/08/22 05:48:04;;;;;;;20.53;17.03;;;16.50;99.90;;;;;;5036401;28;20400;-93
2023/08/22 05:50:30;;;;;;;19.05;16.60;;;16.60;99.90;;;;;;5033731;28;20914;-92
2023/08/22 05:52:56;;;;;;;20.35;18.23;;;16.90;99.90;;;;;;5036248;28;20410;-93
2023/08/22 05:55:21;;;;;;;19.37;17.23;;;16.90;99.90;;;;;;5034706;28;20408;-92
2023/08/22 05:57:47;;;;;;;17.58;15.38;;;16.70;99.90;;;;;;5034232;28;20403;-91
2023/08/22 06:00:13;;;;;;;20.13;17.40;;;16.90;99.90;;;;;;5051890;28;20459;-92
2023/08/22 06:02:39;;;;;;;17.83;15.95;;;17.00;99.90;;;;;;5034869;28;20534;-92
2023/08/22 06:05:06;;;;;;;16.50;14.63;;;17.10;99.90;;;;;;5052210;28;20400;-94
2023/08/22 06:07:32;;;;;;;17.27;15.48;;;17.20;99.90;;;;;;5050518;28;20407;-93
2023/08/22 06:09:58;;;;;;;17.90;15.50;;;17.40;99.90;;;;;;5035307;28;20404;-93
2023/08/22 06:12:25;;;;;;;18.52;15.57;;;17.50;99.90;;;;;;5034459;28;20770;-93
2023/08/22 06:14:50;;;;;;;15.73;14.10;;;17.80;99.90;;;;;;5051319;28;20485;-94
2023/08/22 06:17:16;;;;;;;20.20;15.77;;;17.70;99.90;;;;;;5034976;28;20988;-92
2023/08/22 06:19:41;;;;;;;18.20;14.17;;;17.80;99.90;;;;;;5051909;28;20403;-93
2023/08/22 06:22:07;;;;;;;17.20;15.10;;;18.00;99.90;;;;;;5035608;28;20424;-94
2023/08/22 06:24:33;;;;;;;16.67;14.63;;;18.00;99.90;;;;;;5050870;28;20396;-92
2023/08/22 06:26:58;;;;;;;16.20;14.50;;;18.10;99.90;;;;;;5052251;28;20427;-93
2023/08/22 06:29:24;;;;;;;17.30;15.13;;;17.90;99.90;;;;;;5050761;28;20440;-93
2023/08/22 06:31:50;;;;;;;17.98;16.13;;;18.40;99.90;;;;;;5052008;28;20415;-93
2023/08/22 06:34:15;;;;;;;15.30;13.70;;;18.70;99.90;;;;;;5034567;28;20411;-94
2023/08/22 06:36:41;;;;;;;15.20;13.57;;;18.80;99.90;;;;;;5052095;28;20770;-93
2023/08/22 06:39:07;;;;;;;17.83;14.40;;;18.60;99.90;;;;;;5051045;28;20740;-93
2023/08/22 06:41:32;;;;;;;14.33;12.87;;;18.90;99.90;;;;;;5034443;28;20423;-93
2023/08/22 06:44:00;;;;;;;17.13;14.32;;;18.90;99.90;;;;;;5051700;28;20399;-93
2023/08/22 06:46:27;;;;;;;18.50;15.70;;;19.30;99.90;;;;;;5033950;28;20894;-93
2023/08/22 06:48:52;;;;;;;14.57;12.82;;;18.90;99.90;;;;;;5035140;28;20404;-93
2023/08/22 06:51:18;;;;;;;14.77;13.18;;;19.00;99.90;;;;;;5034057;28;20414;-94
2023/08/22 06:53:44;;;;;;;15.63;13.10;;;19.50;99.90;;;;;;5035117;28;20429;-94
2023/08/22 06:56:10;;;;;;;14.65;12.50;;;19.30;99.90;;;;;;5033979;28;20443;-94
2023/08/22 06:58:36;;;;;;;13.35;11.82;;;19.50;99.90;;;;;;5050940;28;20408;-93
2023/08/22 07:01:05;;;;;;;13.37;11.53;;;19.50;99.90;;;;;;5034201;28;21147;-94
2023/08/22 07:03:31;;;;;;;15.43;12.88;;;19.90;99.90;;;;;;5033673;28;20423;-93
2023/08/22 07:05:57;;;;;;;15.60;12.97;;;19.60;99.90;;;;;;5035133;28;20412;-94
2023/08/22 07:08:22;;;;;;;14.88;11.57;;;19.70;99.90;;;;;;5033543;28;20431;-92
2023/08/22 07:10:48;;;;;;;14.20;11.93;;;19.70;99.90;;;;;;5034584;28;20410;-94
2023/08/22 07:13:15;;;;;;;14.95;11.45;;;19.80;99.90;;;;;;5033820;28;20415;-93
2023/08/22 07:15:40;;;;;;;12.75;10.27;;;19.90;99.90;;;;;;5034111;28;20423;-93
2023/08/22 07:18:06;;;;;;;14.13;12.23;;;20.20;99.90;;;;;;5034037;28;20411;-93
2023/08/22 07:20:31;;;;;;;11.83;10.60;;;19.90;99.90;;;;;;5032607;28;20404;-92
2023/08/22 07:22:57;;;;;;;11.80;9.98;;;20.20;99.90;;;;;;5053102;28;20424;-93
2023/08/22 07:25:23;;;;;;;15.33;11.90;;;20.10;99.90;;;;;;5033251;28;20429;-91
2023/08/22 07:27:48;;;;;;;14.47;10.10;;;20.40;99.90;;;;;;5034122;28;20416;-93
2023/08/22 07:30:14;;;;;;;12.77;9.57;;;20.10;99.90;;;;;;5032167;28;20410;-94
2023/08/22 07:32:40;;;;;;;9.17;7.70;;;20.10;99.90;;;;;;5033562;28;20407;-92
2023/08/22 07:35:05;;;;;;;9.15;7.97;;;20.10;99.90;;;;;;5049896;28;20403;-93
2023/08/22 07:37:34;;;;;;;10.65;7.95;;;20.30;99.90;;;;;;5033277;28;20412;-92
2023/08/22 07:40:00;;;;;;;9.70;7.05;;;20.90;99.90;;;;;;5035278;28;20546;-93
2023/08/22 07:42:26;;;;;;;9.45;6.90;;;20.50;99.90;;;;;;5049535;28;20507;-91
2023/08/22 07:44:51;;;;;;;8.83;6.40;;;21.10;99.90;;;;;;5034971;28;20400;-92
2023/08/22 07:47:17;;;;;;;9.95;7.20;;;21.50;99.90;;;;;;5033080;28;20488;-93
2023/08/22 07:49:42;;;;;;;9.17;7.13;;;20.90;99.90;;;;;;5034924;28;20407;-94
2023/08/22 07:52:08;;;;;;;9.50;7.50;;;20.90;99.90;;;;;;5032879;28;20754;-93
2023/08/22 07:54:34;;;;;;;9.10;7.55;;;21.00;99.90;;;;;;5050600;28;20857;-94
2023/08/22 07:57:00;;;;;;;11.43;7.77;;;21.00;99.90;;;;;;5033482;28;20411;-92
2023/08/22 07:59:25;;;;;;;9.63;8.63;;;21.10;99.90;;;;;;5032842;28;20776;-94
2023/08/22 08:01:52;;;;;;;12.02;8.27;;;20.90;99.90;;;;;;5033129;28;20941;-93
2023/08/22 08:04:18;;;;;;;10.88;8.90;;;21.00;99.90;;;;;;5032455;28;20486;-94
2023/08/22 08:06:46;;;;;;;10.33;8.37;;;21.10;99.90;;;;;;5050581;28;20486;-92
2023/08/22 08:09:11;;;;;;;11.07;8.53;;;21.40;99.90;;;;;;5031807;28;20419;-92
2023/08/22 08:11:37;;;;;;;9.77;8.77;;;21.60;99.90;;;;;;5033774;28;20511;-93
2023/08/22 08:14:03;;;;;;;10.53;8.73;;;21.80;99.90;;;;;;5049644;28;20529;-92
2023/08/22 08:16:28;;;;;;;9.80;7.80;;;21.70;99.90;;;;;;5032701;28;20473;-94
2023/08/22 08:18:54;;;;;;;8.97;7.50;;;22.10;99.90;;;;;;5048723;28;20773;-88
2023/08/22 08:21:21;;;;;;;8.40;7.35;;;21.90;99.90;;;;;;5030724;28;20858;-87
2023/08/22 08:23:46;;;;;;;7.82;7.05;;;21.90;99.90;;;;;;5049004;28;20414;-88
2023/08/22 08:26:12;;;;;;;7.63;6.80;;;22.20;99.90;;;;;;5030959;28;20404;-91
2023/08/22 08:28:38;;;;;;;9.00;7.22;;;22.40;99.90;;;;;;5032235;28;20550;-90
2023/08/22 08:31:05;;;;;;;8.87;7.20;;;22.10;99.90;;;;;;5041686;28;20412;-88
2023/08/22 08:33:31;;;;;;;8.03;6.00;;;22.20;99.90;;;;;;5034770;28;20525;-88
2023/08/22 08:35:57;;;;;;;7.50;5.77;;;22.10;99.90;;;;;;5030941;28;20396;-90
2023/08/22 08:38:22;;;;;;;7.75;5.80;;;22.30;99.90;;;;;;5047602;28;20411;-89
2023/08/22 08:40:48;;;;;;;7.70;5.00;;;22.10;99.90;;;;;;5031761;28;20412;-88
2023/08/22 08:43:14;;;;;;;7.22;5.32;;;22.00;99.90;;;;;;5047816;28;20403;-91
2023/08/22 08:45:40;;;;;;;6.60;4.97;;;22.00;99.90;;;;;;5048506;28;20439;-92
2023/08/22 08:48:06;;;;;;;8.40;4.55;;;22.60;99.90;;;;;;5031355;28;20445;-90
2023/08/22 08:50:33;;;;;;;7.63;4.65;;;22.80;99.90;;;;;;5048501;28;20400;-90
2023/08/22 08:52:59;;;;;;;7.18;4.22;;;22.60;99.90;;;;;;5031557;28;20400;-89
2023/08/22 08:55:25;;;;;;;5.60;4.25;;;22.70;99.90;;;;;;5031165;28;20966;-89
2023/08/22 08:57:56;;;;;;;7.68;4.43;;;22.70;99.90;;;;;;5031474;28;20418;-88
2023/08/22 09:00:21;;;;;;;7.10;5.00;;;22.60;99.90;;;;;;5047442;28;20419;-90
2023/08/22 09:02:47;;;;;;;8.40;5.13;;;22.50;99.90;;;;;;5031805;28;20926;-89
2023/08/22 09:05:14;;;;;;;9.23;4.63;;;22.40;99.90;;;;;;5029689;28;20493;-88
2023/08/22 09:07:43;;;;;;;6.82;4.45;;;22.20;99.90;;;;;;5047697;28;20434;-88
2023/08/22 09:10:09;;;;;;;8.60;4.40;;;22.00;99.90;;;;;;5030576;28;20906;-88
2023/08/22 09:12:36;;;;;;;7.27;5.20;;;22.50;99.90;;;;;;5030923;28;20469;-88
2023/08/22 09:15:02;;;;;;;8.07;4.85;;;22.60;99.90;;;;;;5031003;28;20508;-87
2023/08/22 09:17:29;;;;;;;7.82;5.07;;;22.70;99.90;;;;;;5029990;28;20452;-89
2023/08/22 09:19:55;;;;;;;7.85;4.65;;;22.80;99.90;;;;;;5031517;28;20403;-88
2023/08/22 09:22:29;;;;;;;7.13;4.90;;;23.40;99.90;;;;;;5033866;28;20424;-89
2023/08/22 09:24:54;;;;;;;8.68;5.32;;;23.20;99.90;;;;;;5035744;28;21006;-88
2023/08/22 09:27:22;;;;;;;7.17;5.60;;;23.40;99.90;;;;;;5051073;28;20408;-87
2023/08/22 09:29:48;;;;;;;8.27;5.18;;;23.50;99.90;;;;;;5034057;28;20400;-89
2023/08/22 09:32:13;;;;;;;7.23;5.30;;;23.90;99.90;;;;;;5034362;28;20740;-88
2023/08/22 09:34:55;;;;;;;9.07;5.40;;;23.80;99.90;;;;;;5033610;28;20399;-90
2023/08/22 09:37:37;;;;;;;8.23;5.43;;;24.00;99.90;;;;;;5051257;28;20929;-87
2023/08/22 09:40:09;;;;;;;8.07;5.57;;;24.10;99.90;;;;;;5033757;28;20418;-87
2023/08/22 09:42:39;;;;;;;7.55;5.90;;;23.90;99.90;;;;;;5034161;28;20424;-90
2023/08/22 09:45:06;;;;;;;9.82;6.20;;;23.60;99.90;;;;;;5035311;28;20428;-89
2023/08/22 09:47:31;;;;;;;9.63;6.53;;;23.60;99.90;;;;;;5033478;28;20471;-91
2023/08/22 09:50:07;;;;;;;9.40;6.93;;;23.70;99.90;;;;;;5035004;28;20873;-89
2023/08/22 09:52:36;;;;;;;9.48;6.53;;;23.80;99.90;;;;;;5050245;28;20443;-91
2023/08/22 09:55:02;;;;;;;9.23;6.03;;;24.40;99.90;;;;;;5035719;28;20407;-89
2023/08/22 09:57:29;;;;;;;8.07;5.50;;;24.30;99.90;;;;;;5034251;28;20404;-90
2023/08/22 09:59:55;;;;;;;6.82;5.18;;;24.40;99.90;;;;;;5035805;28;20521;-91
2023/08/22 10:02:23;;;;;;;8.90;6.07;;;24.40;99.90;;;;;;5035336;28;20971;-90
2023/08/22 10:04:49;;;;;;;10.68;5.97;;;24.50;99.90;;;;;;5035714;28;20411;-91
2023/08/22 10:07:15;;;;;;;8.57;5.97;;;24.30;99.90;;;;;;5036791;28;20794;-93
2023/08/22 10:09:42;;;;;;;6.63;4.73;;;25.00;99.90;;;;;;5034179;28;20498;-91
2023/08/22 10:12:11;;;;;;;8.85;5.28;;;25.10;99.90;;;;;;5035398;28;20403;-91
2023/08/22 10:14:50;;;;;;;7.65;5.22;;;25.30;99.90;;;;;;5033808;28;20488;-90
2023/08/22 10:17:16;;;;;;;6.25;4.65;;;25.50;99.90;;;;;;5034895;28;20430;-91
2023/08/22 10:19:43;;;;;;;6.57;4.30;;;26.20;99.50;;;;;;5034632;28;20407;-92
2023/08/22 10:22:15;;;;;;;8.57;4.80;;;26.50;91.50;;;;;;5029586;28;20423;-91
2023/08/22 10:24:41;;;;;;;5.17;4.37;;;26.80;92.60;;;;;;5028635;28;20424;-91
2023/08/22 10:27:10;;;;;;;6.75;4.60;;;27.20;82.80;;;;;;5048922;28;20412;-90
2023/08/22 10:29:41;;;;;;;7.53;4.90;;;27.20;77.20;;;;;;5030748;28;20406;-90
2023/08/22 10:32:07;;;;;;;6.93;4.15;;;27.50;80.80;;;;;;5048954;28;20413;-89
2023/08/22 10:34:39;;;;;;;7.50;4.00;;;27.80;72.10;;;;;;5049098;28;20989;-92
2023/08/22 10:37:15;;;;;;;5.55;3.55;;;28.40;71.10;;;;;;5047535;28;20789;-93
2023/08/22 10:39:50;;;;;;;6.40;3.42;;;28.60;66.90;;;;;;5044458;28;20401;-88
2023/08/22 10:42:18;;;;;;;6.32;3.65;;;29.10;67.90;;;;;;5032384;28;20437;-89
2023/08/22 10:44:51;;;;;;;5.80;2.83;;;29.40;64.40;;;;;;5029794;28;20409;-90
2023/08/22 10:47:21;;;;;;;5.45;2.38;;;29.60;60.00;;;;;;5033878;28;20413;-92
2023/08/22 10:49:52;;;;;;;5.85;2.55;;;29.60;58.00;;;;;;5031329;28;20456;-94
2023/08/22 10:52:23;;;;;;;5.13;2.50;;;29.40;56.60;;;;;;5031618;28;20471;-92
2023/08/22 10:55:24;;;;;;;5.32;2.58;;;29.50;57.80;;;;;;5048241;28;20441;-91
2023/08/22 10:57:54;;;;;;;4.70;2.20;;;29.70;56.90;;;;;;4955599;28;20437;-93
2023/08/22 11:00:23;;;;;;;4.38;1.70;;;29.70;55.10;;;;;;5019564;28;20413;-94
2023/08/22 11:02:59;;;;;;;4.45;2.20;;;29.80;53.10;;;;;;5031082;28;20445;-93
2023/08/22 11:05:29;;;;;;;5.13;2.40;;;30.00;56.80;;;;;;5031075;28;20901;-92
2023/08/22 11:07:55;;;;;;;5.25;3.05;;;30.50;56.90;;;;;;5053669;28;20418;-93
2023/08/22 11:10:23;;;;;;;5.00;2.75;;;30.50;53.70;;;;;;5050899;28;20763;-94
2023/08/22 11:12:50;;;;;;;5.00;2.85;;;30.40;53.40;;;;;;5051217;28;20412;-94
2023/08/22 11:15:17;;;;;;;5.00;3.15;;;30.10;52.50;;;;;;5033082;28;20411;-89
2023/08/22 11:17:45;;;;;;;5.28;2.40;;;30.20;54.20;;;;;;5035125;28;20412;-94
2023/08/22 11:20:13;;;;;;;5.20;3.05;;;30.20;54.80;;;;;;5033416;28;20395;-91
2023/08/22 11:22:44;;;;;;;6.78;3.88;;;30.30;54.00;;;;;;5033436;28;20507;-92
2023/08/22 11:25:12;;;;;;;5.45;3.00;;;30.50;53.20;;;;;;5033757;28;20404;-88
2023/08/22 11:27:38;;;;;;;4.78;2.47;;;30.50;54.40;;;;;;5032818;28;20403;-88
2023/08/22 11:30:06;;;;;;;4.18;1.85;;;30.60;51.60;;;;;;5033546;28;20400;-92
2023/08/22 11:32:35;;;;;;;4.72;2.38;;;30.80;53.80;;;;;;5032014;28;20453;-89
2023/08/22 11:35:03;;;;;;;3.93;1.93;;;31.10;54.90;;;;;;5050193;28;20404;-90
2023/08/22 11:37:31;;;;;;;4.30;1.90;;;31.30;50.70;;;;;;5033291;28;20879;-88
2023/08/22 11:40:00;;;;;;;5.00;2.33;;;31.40;49.20;;;;;;5048988;28;20404;-87
2023/08/22 11:42:33;;;;;;;5.00;2.50;;;31.40;48.70;;;;;;5049632;28;20884;-87
2023/08/22 11:45:21;;;;;;;5.10;2.35;;;31.50;48.60;;;;;;5048059;28;20447;-88
2023/08/22 11:47:54;;;;;;;4.60;1.75;;;31.50;48.10;;;;;;5033132;28;20426;-88
2023/08/22 11:50:25;;;;;;;5.47;2.28;;;31.70;49.60;;;;;;5048771;28;20451;-91
2023/08/22 11:52:54;;;;;;;3.88;2.03;;;31.90;49.60;;;;;;5033365;28;20424;-90
2023/08/22 11:55:26;;;;;;;5.37;3.47;;;32.10;49.10;;;;;;5049731;28;20418;-89
2023/08/22 11:58:03;;;;;;;5.87;3.20;;;32.00;46.40;;;;;;5032127;28;20403;-89
2023/08/22 12:00:31;;;;;;;4.07;2.50;;;32.00;49.00;;;;;;5050387;28;20432;-89
2023/08/22 12:03:02;;;;;;;4.88;2.60;;;32.00;48.70;;;;;;5032796;28;22716;-89
2023/08/22 12:05:49;;;;;;;4.57;2.20;;;31.70;49.80;;;;;;5034947;28;20412;-89
2023/08/22 12:08:19;;;;;;;5.00;2.33;;;31.10;48.30;;;;;;5033366;28;20903;-88
2023/08/22 12:10:48;;;;;;;4.43;2.78;;;30.80;51.50;;;;;;5032166;28;20450;-88
2023/08/22 12:13:16;;;;;;;5.18;3.40;;;30.90;50.40;;;;;;5033335;28;20404;-90
2023/08/22 12:15:42;;;;;;;5.00;2.60;;;31.20;50.50;;;;;;5049197;28;21449;-91
2023/08/22 12:18:09;;;;;;;6.68;3.10;;;31.70;51.70;;;;;;5052297;28;20404;-90
2023/08/22 12:20:38;;;;;;;6.45;3.80;;;31.70;52.30;;;;;;5032826;28;20408;-92
2023/08/22 12:23:04;;;;;;;5.97;2.70;;;31.80;48.00;;;;;;5050939;28;20423;-91
2023/08/22 12:25:30;;;;;;;4.65;2.75;;;31.80;51.60;;;;;;5033175;28;20422;-90
2023/08/22 12:27:55;;;;;;;6.00;2.70;;;32.00;50.00;;;;;;5034758;28;20921;-91
2023/08/22 12:30:21;;;;;;;6.60;2.67;;;32.10;51.20;;;;;;5034560;28;20400;-92
2023/08/22 12:32:53;;;;;;;7.97;3.22;;;32.40;49.90;;;;;;5051559;28;20407;-92
2023/08/22 12:35:18;;;;;;;9.75;4.60;;;32.30;47.20;;;;;;5042381;28;20439;-91
2023/08/22 12:37:44;;;;;;;6.07;3.50;;;31.60;46.60;;;;;;5049777;28;20910;-91